sensor_id;sensor_type;location;lat;lon;timestamp;P1;durP1;ratioP1;P2;durP2;ratioP2
55678;SDS011;41573;51.446;-2.018;2023-04-16T00:01:31;6.32;;;3.63;;
55678;SDS011;41573;51.446;-2.018;2023-04-16T00:03:56;7.68;;;3.70;;
55678;SDS011;41573;51.446;-2.018;2023-04-16T00:06:22;6.03;;;3.17;;
55678;SDS011;41573;51.446;-2.018;2023-04-16T00:08:47;8.80;;;3.95;;
55678;SDS011;41573;51.446;-2.018;2023-04-16T00:11:13;6.15;;;3.40;;
55678;SDS011;41573;51.446;-2.018;2023-04-16T00:13:40;10.60;;;4.30;;
55678;SDS011;41573;51.446;-2.018;2023-04-16T00:16:06;8.40;;;4.00;;
55678;SDS011;41573;51.446;-2.018;2023-04-16T00:18:32;7.88;;;4.07;;
55678;SDS011;41573;51.446;-2.018;2023-04-16T00:20:57;6.72;;;3.53;;
55678;SDS011;41573;51.446;-2.018;2023-04-16T00:23:23;7.13;;;3.78;;
55678;SDS011;41573;51.446;-2.018;2023-04-16T00:25:49;6.20;;;3.67;;
55678;SDS011;41573;51.446;-2.018;2023-04-16T00:28:15;5.32;;;2.95;;
55678;SDS011;41573;51.446;-2.018;2023-04-16T00:30:40;6.63;;;3.53;;
55678;SDS011;41573;51.446;-2.018;2023-04-16T00:33:06;8.73;;;4.15;;
55678;SDS011;41573;51.446;-2.018;2023-04-16T00:35:32;6.03;;;3.72;;
55678;SDS011;41573;51.446;-2.018;2023-04-16T00:37:58;5.97;;;3.20;;
55678;SDS011;41573;51.446;-2.018;2023-04-16T00:40:27;8.15;;;4.07;;
55678;SDS011;41573;51.446;-2.018;2023-04-16T00:42:53;17.45;;;3.90;;
55678;SDS011;41573;51.446;-2.018;2023-04-16T00:45:18;8.57;;;4.53;;
55678;SDS011;41573;51.446;-2.018;2023-04-16T00:47:44;9.05;;;3.67;;
55678;SDS011;41573;51.446;-2.018;2023-04-16T00:50:10;10.88;;;3.95;;
55678;SDS011;41573;51.446;-2.018;2023-04-16T00:52:36;6.28;;;3.78;;
55678;SDS011;41573;51.446;-2.018;2023-04-16T00:55:02;5.32;;;3.25;;
55678;SDS011;41573;51.446;-2.018;2023-04-16T00:57:29;6.32;;;3.60;;
55678;SDS011;41573;51.446;-2.018;2023-04-16T00:59:54;5.93;;;3.40;;
55678;SDS011;41573;51.446;-2.018;2023-04-16T01:02:20;8.25;;;3.75;;
55678;SDS011;41573;51.446;-2.018;2023-04-16T01:04:45;5.65;;;2.80;;
55678;SDS011;41573;51.446;-2.018;2023-04-16T01:07:11;7.85;;;3.30;;
55678;SDS011;41573;51.446;-2.018;2023-04-16T01:09:36;7.30;;;3.58;;
55678;SDS011;41573;51.446;-2.018;2023-04-16T01:12:02;5.93;;;3.00;;
55678;SDS011;41573;51.446;-2.018;2023-04-16T01:14:27;5.65;;;3.40;;
55678;SDS011;41573;51.446;-2.018;2023-04-16T01:16:53;8.07;;;3.08;;
55678;SDS011;41573;51.446;-2.018;2023-04-16T01:19:18;6.38;;;3.55;;
55678;SDS011;41573;51.446;-2.018;2023-04-16T01:21:43;5.10;;;2.67;;
55678;SDS011;41573;51.446;-2.018;2023-04-16T01:24:09;8.90;;;3.28;;
55678;SDS011;41573;51.446;-2.018;2023-04-16T01:26:34;8.35;;;3.33;;
55678;SDS011;41573;51.446;-2.018;2023-04-16T01:29:00;8.60;;;2.88;;
55678;SDS011;41573;51.446;-2.018;2023-04-16T01:31:25;5.60;;;2.78;;
55678;SDS011;41573;51.446;-2.018;2023-04-16T01:33:50;7.38;;;3.42;;
55678;SDS011;41573;51.446;-2.018;2023-04-16T01:36:16;6.70;;;3.40;;
55678;SDS011;41573;51.446;-2.018;2023-04-16T01:38:41;7.10;;;3.40;;
55678;SDS011;41573;51.446;-2.018;2023-04-16T01:41:07;5.07;;;3.20;;
55678;SDS011;41573;51.446;-2.018;2023-04-16T01:43:32;5.95;;;3.20;;
55678;SDS011;41573;51.446;-2.018;2023-04-16T01:46:06;6.97;;;3.00;;
55678;SDS011;41573;51.446;-2.018;2023-04-16T01:48:33;4.85;;;2.80;;
55678;SDS011;41573;51.446;-2.018;2023-04-16T01:50:58;5.75;;;3.53;;
55678;SDS011;41573;51.446;-2.018;2023-04-16T01:53:24;7.93;;;3.20;;
55678;SDS011;41573;51.446;-2.018;2023-04-16T01:55:49;5.95;;;2.60;;
55678;SDS011;41573;51.446;-2.018;2023-04-16T01:58:15;6.30;;;3.83;;
55678;SDS011;41573;51.446;-2.018;2023-04-16T02:00:40;5.72;;;3.42;;
55678;SDS011;41573;51.446;-2.018;2023-04-16T02:03:05;4.75;;;2.97;;
55678;SDS011;41573;51.446;-2.018;2023-04-16T02:05:31;6.35;;;3.05;;
55678;SDS011;41573;51.446;-2.018;2023-04-16T02:07:56;7.97;;;3.55;;
55678;SDS011;41573;51.446;-2.018;2023-04-16T02:10:22;8.05;;;3.58;;
55678;SDS011;41573;51.446;-2.018;2023-04-16T02:12:47;7.90;;;3.83;;
55678;SDS011;41573;51.446;-2.018;2023-04-16T02:15:12;6.07;;;2.92;;
55678;SDS011;41573;51.446;-2.018;2023-04-16T02:17:39;8.57;;;3.08;;
55678;SDS011;41573;51.446;-2.018;2023-04-16T02:20:05;6.82;;;3.67;;
55678;SDS011;41573;51.446;-2.018;2023-04-16T02:22:32;6.60;;;3.33;;
55678;SDS011;41573;51.446;-2.018;2023-04-16T02:24:57;13.20;;;3.38;;
55678;SDS011;41573;51.446;-2.018;2023-04-16T02:27:23;7.82;;;3.25;;
55678;SDS011;41573;51.446;-2.018;2023-04-16T02:29:48;5.00;;;3.15;;
55678;SDS011;41573;51.446;-2.018;2023-04-16T02:32:13;9.50;;;3.15;;
55678;SDS011;41573;51.446;-2.018;2023-04-16T02:34:39;7.72;;;3.20;;
55678;SDS011;41573;51.446;-2.018;2023-04-16T02:37:07;6.07;;;3.33;;
55678;SDS011;41573;51.446;-2.018;2023-04-16T02:39:32;5.93;;;2.95;;
55678;SDS011;41573;51.446;-2.018;2023-04-16T02:41:58;4.38;;;2.53;;
55678;SDS011;41573;51.446;-2.018;2023-04-16T02:44:24;5.07;;;2.70;;
55678;SDS011;41573;51.446;-2.018;2023-04-16T02:46:50;8.00;;;3.05;;
55678;SDS011;41573;51.446;-2.018;2023-04-16T02:49:15;6.35;;;3.63;;
55678;SDS011;41573;51.446;-2.018;2023-04-16T02:51:40;4.80;;;3.10;;
55678;SDS011;41573;51.446;-2.018;2023-04-16T02:54:06;8.38;;;2.75;;
55678;SDS011;41573;51.446;-2.018;2023-04-16T02:56:31;6.88;;;3.38;;
55678;SDS011;41573;51.446;-2.018;2023-04-16T02:58:57;8.43;;;3.63;;
55678;SDS011;41573;51.446;-2.018;2023-04-16T03:01:22;9.23;;;3.65;;
55678;SDS011;41573;51.446;-2.018;2023-04-16T03:03:47;7.03;;;3.55;;
55678;SDS011;41573;51.446;-2.018;2023-04-16T03:06:13;7.00;;;3.88;;
55678;SDS011;41573;51.446;-2.018;2023-04-16T03:08:38;9.15;;;4.32;;
55678;SDS011;41573;51.446;-2.018;2023-04-16T03:11:03;6.70;;;3.42;;
55678;SDS011;41573;51.446;-2.018;2023-04-16T03:13:29;6.90;;;3.63;;
55678;SDS011;41573;51.446;-2.018;2023-04-16T03:15:54;6.05;;;3.90;;
55678;SDS011;41573;51.446;-2.018;2023-04-16T03:18:20;5.57;;;3.08;;
55678;SDS011;41573;51.446;-2.018;2023-04-16T03:20:45;6.00;;;3.05;;
55678;SDS011;41573;51.446;-2.018;2023-04-16T03:23:15;6.40;;;3.50;;
55678;SDS011;41573;51.446;-2.018;2023-04-16T03:25:41;5.97;;;3.28;;
55678;SDS011;41573;51.446;-2.018;2023-04-16T03:28:08;5.88;;;2.80;;
55678;SDS011;41573;51.446;-2.018;2023-04-16T03:30:33;7.90;;;4.68;;
55678;SDS011;41573;51.446;-2.018;2023-04-16T03:32:59;6.22;;;3.50;;
55678;SDS011;41573;51.446;-2.018;2023-04-16T03:35:25;5.57;;;3.08;;
55678;SDS011;41573;51.446;-2.018;2023-04-16T03:37:50;4.55;;;3.00;;
55678;SDS011;41573;51.446;-2.018;2023-04-16T03:40:15;6.15;;;3.20;;
55678;SDS011;41573;51.446;-2.018;2023-04-16T03:42:41;8.43;;;3.08;;
55678;SDS011;41573;51.446;-2.018;2023-04-16T03:45:06;7.05;;;3.55;;
55678;SDS011;41573;51.446;-2.018;2023-04-16T03:47:33;5.25;;;2.95;;
55678;SDS011;41573;51.446;-2.018;2023-04-16T03:49:58;5.63;;;3.40;;
55678;SDS011;41573;51.446;-2.018;2023-04-16T03:52:24;6.78;;;3.60;;
55678;SDS011;41573;51.446;-2.018;2023-04-16T03:54:49;5.93;;;3.20;;
55678;SDS011;41573;51.446;-2.018;2023-04-16T03:57:15;5.38;;;3.05;;
55678;SDS011;41573;51.446;-2.018;2023-04-16T03:59:40;6.63;;;3.53;;
55678;SDS011;41573;51.446;-2.018;2023-04-16T04:02:05;8.00;;;4.13;;
55678;SDS011;41573;51.446;-2.018;2023-04-16T04:04:31;5.57;;;3.35;;
55678;SDS011;41573;51.446;-2.018;2023-04-16T04:06:56;7.10;;;3.20;;
55678;SDS011;41573;51.446;-2.018;2023-04-16T04:09:24;7.30;;;3.28;;
55678;SDS011;41573;51.446;-2.018;2023-04-16T04:11:49;6.65;;;3.95;;
55678;SDS011;41573;51.446;-2.018;2023-04-16T04:14:15;7.10;;;3.60;;
55678;SDS011;41573;51.446;-2.018;2023-04-16T04:16:40;9.23;;;3.45;;
55678;SDS011;41573;51.446;-2.018;2023-04-16T04:19:06;5.28;;;3.03;;
55678;SDS011;41573;51.446;-2.018;2023-04-16T04:21:31;5.95;;;3.28;;
55678;SDS011;41573;51.446;-2.018;2023-04-16T04:23:57;4.75;;;3.40;;
55678;SDS011;41573;51.446;-2.018;2023-04-16T04:26:22;8.23;;;3.58;;
55678;SDS011;41573;51.446;-2.018;2023-04-16T04:28:47;5.30;;;3.42;;
55678;SDS011;41573;51.446;-2.018;2023-04-16T04:31:13;5.28;;;3.15;;
55678;SDS011;41573;51.446;-2.018;2023-04-16T04:33:38;5.68;;;3.75;;
55678;SDS011;41573;51.446;-2.018;2023-04-16T04:36:04;5.05;;;3.20;;
55678;SDS011;41573;51.446;-2.018;2023-04-16T04:38:29;8.82;;;3.97;;
55678;SDS011;41573;51.446;-2.018;2023-04-16T04:40:55;5.78;;;3.13;;
55678;SDS011;41573;51.446;-2.018;2023-04-16T04:43:20;8.05;;;3.20;;
55678;SDS011;41573;51.446;-2.018;2023-04-16T04:45:46;5.93;;;2.72;;
55678;SDS011;41573;51.446;-2.018;2023-04-16T04:48:13;7.05;;;3.30;;
55678;SDS011;41573;51.446;-2.018;2023-04-16T04:50:38;5.38;;;3.25;;
55678;SDS011;41573;51.446;-2.018;2023-04-16T04:53:05;5.43;;;3.05;;
55678;SDS011;41573;51.446;-2.018;2023-04-16T04:55:34;8.57;;;3.42;;
55678;SDS011;41573;51.446;-2.018;2023-04-16T04:58:04;7.50;;;3.72;;
55678;SDS011;41573;51.446;-2.018;2023-04-16T05:00:30;6.80;;;3.78;;
55678;SDS011;41573;51.446;-2.018;2023-04-16T05:02:56;7.63;;;3.35;;
55678;SDS011;41573;51.446;-2.018;2023-04-16T05:05:21;5.72;;;3.47;;
55678;SDS011;41573;51.446;-2.018;2023-04-16T05:07:47;6.03;;;3.42;;
55678;SDS011;41573;51.446;-2.018;2023-04-16T05:10:12;4.03;;;3.00;;
55678;SDS011;41573;51.446;-2.018;2023-04-16T05:12:38;7.20;;;3.85;;
55678;SDS011;41573;51.446;-2.018;2023-04-16T05:15:04;5.20;;;3.03;;
55678;SDS011;41573;51.446;-2.018;2023-04-16T05:17:30;7.50;;;3.50;;
55678;SDS011;41573;51.446;-2.018;2023-04-16T05:19:55;7.53;;;3.78;;
55678;SDS011;41573;51.446;-2.018;2023-04-16T05:22:21;5.68;;;3.58;;
55678;SDS011;41573;51.446;-2.018;2023-04-16T05:24:46;7.82;;;4.25;;
55678;SDS011;41573;51.446;-2.018;2023-04-16T05:27:12;5.40;;;3.00;;
55678;SDS011;41573;51.446;-2.018;2023-04-16T05:29:37;5.20;;;3.17;;
55678;SDS011;41573;51.446;-2.018;2023-04-16T05:32:02;6.40;;;3.33;;
55678;SDS011;41573;51.446;-2.018;2023-04-16T05:34:28;7.75;;;3.22;;
55678;SDS011;41573;51.446;-2.018;2023-04-16T05:36:54;5.75;;;3.20;;
55678;SDS011;41573;51.446;-2.018;2023-04-16T05:39:19;6.38;;;2.83;;
55678;SDS011;41573;51.446;-2.018;2023-04-16T05:41:45;5.25;;;2.83;;
55678;SDS011;41573;51.446;-2.018;2023-04-16T05:44:10;3.88;;;2.40;;
55678;SDS011;41573;51.446;-2.018;2023-04-16T05:46:39;11.05;;;2.45;;
55678;SDS011;41573;51.446;-2.018;2023-04-16T05:49:05;5.07;;;2.83;;
55678;SDS011;41573;51.446;-2.018;2023-04-16T05:51:30;4.10;;;2.72;;
55678;SDS011;41573;51.446;-2.018;2023-04-16T05:53:56;5.28;;;2.63;;
55678;SDS011;41573;51.446;-2.018;2023-04-16T05:56:21;3.83;;;2.25;;
55678;SDS011;41573;51.446;-2.018;2023-04-16T05:58:47;3.67;;;2.33;;
55678;SDS011;41573;51.446;-2.018;2023-04-16T06:01:12;4.38;;;2.50;;
55678;SDS011;41573;51.446;-2.018;2023-04-16T06:03:38;5.38;;;2.30;;
55678;SDS011;41573;51.446;-2.018;2023-04-16T06:06:03;5.13;;;2.10;;
55678;SDS011;41573;51.446;-2.018;2023-04-16T06:08:29;4.95;;;2.60;;
55678;SDS011;41573;51.446;-2.018;2023-04-16T06:10:54;6.50;;;3.10;;
55678;SDS011;41573;51.446;-2.018;2023-04-16T06:13:20;5.30;;;2.30;;
55678;SDS011;41573;51.446;-2.018;2023-04-16T06:15:46;8.13;;;3.00;;
55678;SDS011;41573;51.446;-2.018;2023-04-16T06:18:11;4.68;;;2.53;;
55678;SDS011;41573;51.446;-2.018;2023-04-16T06:20:37;3.92;;;2.55;;
55678;SDS011;41573;51.446;-2.018;2023-04-16T06:23:02;9.32;;;2.58;;
55678;SDS011;41573;51.446;-2.018;2023-04-16T06:25:27;5.47;;;2.53;;
55678;SDS011;41573;51.446;-2.018;2023-04-16T06:27:53;6.38;;;2.55;;
55678;SDS011;41573;51.446;-2.018;2023-04-16T06:30:18;4.22;;;2.55;;
55678;SDS011;41573;51.446;-2.018;2023-04-16T06:32:44;5.05;;;2.35;;
55678;SDS011;41573;51.446;-2.018;2023-04-16T06:35:10;3.58;;;2.42;;
55678;SDS011;41573;51.446;-2.018;2023-04-16T06:37:36;3.38;;;1.85;;
55678;SDS011;41573;51.446;-2.018;2023-04-16T06:40:10;8.27;;;2.50;;
55678;SDS011;41573;51.446;-2.018;2023-04-16T06:42:36;3.45;;;1.90;;
55678;SDS011;41573;51.446;-2.018;2023-04-16T06:45:01;7.05;;;2.45;;
55678;SDS011;41573;51.446;-2.018;2023-04-16T06:47:27;4.60;;;2.05;;
55678;SDS011;41573;51.446;-2.018;2023-04-16T06:49:52;5.93;;;2.63;;
55678;SDS011;41573;51.446;-2.018;2023-04-16T06:52:17;5.57;;;1.90;;
55678;SDS011;41573;51.446;-2.018;2023-04-16T06:54:43;6.22;;;2.22;;
55678;SDS011;41573;51.446;-2.018;2023-04-16T06:57:08;8.02;;;2.13;;
55678;SDS011;41573;51.446;-2.018;2023-04-16T06:59:35;5.00;;;2.35;;
55678;SDS011;41573;51.446;-2.018;2023-04-16T07:02:00;4.05;;;2.00;;
55678;SDS011;41573;51.446;-2.018;2023-04-16T07:04:26;3.78;;;2.17;;
55678;SDS011;41573;51.446;-2.018;2023-04-16T07:06:51;5.68;;;2.38;;
55678;SDS011;41573;51.446;-2.018;2023-04-16T07:09:16;4.82;;;2.20;;
55678;SDS011;41573;51.446;-2.018;2023-04-16T07:11:42;3.58;;;1.98;;
55678;SDS011;41573;51.446;-2.018;2023-04-16T07:14:08;5.93;;;2.67;;
55678;SDS011;41573;51.446;-2.018;2023-04-16T07:16:33;6.60;;;2.25;;
55678;SDS011;41573;51.446;-2.018;2023-04-16T07:19:02;8.25;;;2.42;;
55678;SDS011;41573;51.446;-2.018;2023-04-16T07:21:27;4.40;;;1.92;;
55678;SDS011;41573;51.446;-2.018;2023-04-16T07:26:27;3.95;;;2.10;;
55678;SDS011;41573;51.446;-2.018;2023-04-16T07:28:53;4.90;;;2.25;;
55678;SDS011;41573;51.446;-2.018;2023-04-16T07:31:18;3.60;;;2.47;;
55678;SDS011;41573;51.446;-2.018;2023-04-16T07:33:44;4.95;;;2.58;;
55678;SDS011;41573;51.446;-2.018;2023-04-16T07:36:09;8.00;;;2.38;;
55678;SDS011;41573;51.446;-2.018;2023-04-16T07:38:35;5.07;;;1.85;;
55678;SDS011;41573;51.446;-2.018;2023-04-16T07:41:00;3.50;;;1.88;;
55678;SDS011;41573;51.446;-2.018;2023-04-16T07:43:25;5.70;;;2.10;;
55678;SDS011;41573;51.446;-2.018;2023-04-16T07:45:51;5.82;;;2.45;;
55678;SDS011;41573;51.446;-2.018;2023-04-16T07:48:16;6.32;;;2.63;;
55678;SDS011;41573;51.446;-2.018;2023-04-16T07:50:42;3.85;;;2.00;;
55678;SDS011;41573;51.446;-2.018;2023-04-16T07:53:07;4.45;;;2.10;;
55678;SDS011;41573;51.446;-2.018;2023-04-16T07:55:33;4.25;;;2.20;;
55678;SDS011;41573;51.446;-2.018;2023-04-16T07:57:58;5.00;;;2.35;;
55678;SDS011;41573;51.446;-2.018;2023-04-16T08:00:24;6.13;;;1.95;;
55678;SDS011;41573;51.446;-2.018;2023-04-16T08:02:50;9.27;;;2.70;;
55678;SDS011;41573;51.446;-2.018;2023-04-16T08:05:16;3.85;;;2.00;;
55678;SDS011;41573;51.446;-2.018;2023-04-16T08:07:41;6.03;;;1.80;;
55678;SDS011;41573;51.446;-2.018;2023-04-16T08:10:07;4.43;;;2.00;;
55678;SDS011;41573;51.446;-2.018;2023-04-16T08:12:33;9.07;;;1.95;;
55678;SDS011;41573;51.446;-2.018;2023-04-16T08:14:59;5.72;;;2.28;;
55678;SDS011;41573;51.446;-2.018;2023-04-16T08:17:25;5.93;;;2.13;;
55678;SDS011;41573;51.446;-2.018;2023-04-16T08:19:52;3.05;;;2.03;;
55678;SDS011;41573;51.446;-2.018;2023-04-16T08:22:18;3.85;;;1.75;;
55678;SDS011;41573;51.446;-2.018;2023-04-16T08:24:43;2.83;;;1.80;;
55678;SDS011;41573;51.446;-2.018;2023-04-16T08:27:09;4.53;;;1.90;;
55678;SDS011;41573;51.446;-2.018;2023-04-16T08:29:36;3.40;;;1.90;;
55678;SDS011;41573;51.446;-2.018;2023-04-16T08:32:01;3.40;;;1.85;;
55678;SDS011;41573;51.446;-2.018;2023-04-16T08:34:26;5.60;;;2.17;;
55678;SDS011;41573;51.446;-2.018;2023-04-16T08:36:52;7.82;;;1.83;;
55678;SDS011;41573;51.446;-2.018;2023-04-16T08:39:17;3.67;;;1.60;;
55678;SDS011;41573;51.446;-2.018;2023-04-16T08:41:44;2.83;;;1.50;;
55678;SDS011;41573;51.446;-2.018;2023-04-16T08:44:19;4.85;;;1.77;;
55678;SDS011;41573;51.446;-2.018;2023-04-16T08:46:47;4.97;;;1.70;;
55678;SDS011;41573;51.446;-2.018;2023-04-16T08:49:14;3.72;;;1.75;;
55678;SDS011;41573;51.446;-2.018;2023-04-16T08:51:47;6.10;;;2.17;;
55678;SDS011;41573;51.446;-2.018;2023-04-16T08:54:18;7.93;;;1.92;;
55678;SDS011;41573;51.446;-2.018;2023-04-16T08:56:45;6.97;;;2.10;;
55678;SDS011;41573;51.446;-2.018;2023-04-16T08:59:12;4.88;;;1.85;;
55678;SDS011;41573;51.446;-2.018;2023-04-16T09:01:38;4.18;;;1.70;;
55678;SDS011;41573;51.446;-2.018;2023-04-16T09:04:05;4.47;;;1.95;;
55678;SDS011;41573;51.446;-2.018;2023-04-16T09:06:31;3.40;;;1.40;;
55678;SDS011;41573;51.446;-2.018;2023-04-16T09:08:58;3.28;;;2.13;;
55678;SDS011;41573;51.446;-2.018;2023-04-16T09:11:28;2.35;;;1.33;;
55678;SDS011;41573;51.446;-2.018;2023-04-16T09:13:54;3.47;;;1.58;;
55678;SDS011;41573;51.446;-2.018;2023-04-16T09:16:21;3.92;;;1.63;;
55678;SDS011;41573;51.446;-2.018;2023-04-16T09:18:48;3.65;;;1.58;;
55678;SDS011;41573;51.446;-2.018;2023-04-16T09:21:14;1.42;;;1.27;;
55678;SDS011;41573;51.446;-2.018;2023-04-16T09:23:39;3.08;;;1.83;;
55678;SDS011;41573;51.446;-2.018;2023-04-16T09:26:06;4.13;;;1.40;;
55678;SDS011;41573;51.446;-2.018;2023-04-16T09:28:41;3.67;;;1.13;;
55678;SDS011;41573;51.446;-2.018;2023-04-16T09:31:17;1.77;;;1.10;;
55678;SDS011;41573;51.446;-2.018;2023-04-16T09:34:00;2.85;;;1.00;;
55678;SDS011;41573;51.446;-2.018;2023-04-16T09:36:33;2.20;;;0.98;;
55678;SDS011;41573;51.446;-2.018;2023-04-16T09:38:59;1.80;;;0.73;;
55678;SDS011;41573;51.446;-2.018;2023-04-16T09:41:29;4.35;;;1.20;;
55678;SDS011;41573;51.446;-2.018;2023-04-16T09:43:56;2.05;;;0.85;;
55678;SDS011;41573;51.446;-2.018;2023-04-16T09:46:30;2.53;;;1.23;;
55678;SDS011;41573;51.446;-2.018;2023-04-16T09:49:03;2.25;;;0.75;;
55678;SDS011;41573;51.446;-2.018;2023-04-16T09:51:35;1.75;;;0.80;;
55678;SDS011;41573;51.446;-2.018;2023-04-16T09:54:03;3.20;;;1.10;;
55678;SDS011;41573;51.446;-2.018;2023-04-16T09:56:29;5.78;;;1.00;;
55678;SDS011;41573;51.446;-2.018;2023-04-16T09:58:55;1.95;;;1.25;;
55678;SDS011;41573;51.446;-2.018;2023-04-16T10:01:22;2.85;;;1.00;;
55678;SDS011;41573;51.446;-2.018;2023-04-16T10:03:48;3.63;;;1.17;;
55678;SDS011;41573;51.446;-2.018;2023-04-16T10:06:16;1.60;;;1.02;;
55678;SDS011;41573;51.446;-2.018;2023-04-16T10:08:49;1.58;;;1.10;;
55678;SDS011;41573;51.446;-2.018;2023-04-16T10:11:16;3.67;;;1.10;;
55678;SDS011;41573;51.446;-2.018;2023-04-16T10:13:43;3.72;;;1.20;;
55678;SDS011;41573;51.446;-2.018;2023-04-16T10:16:08;3.30;;;1.40;;
55678;SDS011;41573;51.446;-2.018;2023-04-16T10:18:35;1.40;;;1.10;;
55678;SDS011;41573;51.446;-2.018;2023-04-16T10:21:02;2.42;;;1.45;;
55678;SDS011;41573;51.446;-2.018;2023-04-16T10:23:28;2.22;;;1.15;;
55678;SDS011;41573;51.446;-2.018;2023-04-16T10:25:55;3.80;;;1.10;;
55678;SDS011;41573;51.446;-2.018;2023-04-16T10:28:22;2.50;;;1.35;;
55678;SDS011;41573;51.446;-2.018;2023-04-16T10:30:48;4.10;;;1.38;;
55678;SDS011;41573;51.446;-2.018;2023-04-16T10:33:26;4.60;;;1.20;;
55678;SDS011;41573;51.446;-2.018;2023-04-16T10:36:10;3.17;;;1.20;;
55678;SDS011;41573;51.446;-2.018;2023-04-16T10:38:45;2.67;;;1.10;;
55678;SDS011;41573;51.446;-2.018;2023-04-16T10:41:13;1.30;;;0.85;;
55678;SDS011;41573;51.446;-2.018;2023-04-16T10:43:40;1.13;;;1.00;;
55678;SDS011;41573;51.446;-2.018;2023-04-16T10:46:29;1.13;;;0.70;;
55678;SDS011;41573;51.446;-2.018;2023-04-16T10:48:55;3.28;;;0.90;;
55678;SDS011;41573;51.446;-2.018;2023-04-16T10:53:50;5.28;;;1.20;;
55678;SDS011;41573;51.446;-2.018;2023-04-16T10:56:21;2.35;;;0.88;;
55678;SDS011;41573;51.446;-2.018;2023-04-16T10:58:48;5.13;;;0.93;;
55678;SDS011;41573;51.446;-2.018;2023-04-16T11:01:13;0.95;;;0.70;;
55678;SDS011;41573;51.446;-2.018;2023-04-16T11:03:41;2.40;;;1.10;;
55678;SDS011;41573;51.446;-2.018;2023-04-16T11:08:38;7.18;;;1.15;;
55678;SDS011;41573;51.446;-2.018;2023-04-16T11:11:05;1.48;;;0.88;;
55678;SDS011;41573;51.446;-2.018;2023-04-16T11:13:31;3.08;;;1.17;;
55678;SDS011;41573;51.446;-2.018;2023-04-16T11:15:57;5.75;;;0.80;;
55678;SDS011;41573;51.446;-2.018;2023-04-16T11:18:23;2.15;;;0.75;;
55678;SDS011;41573;51.446;-2.018;2023-04-16T11:20:49;3.60;;;1.10;;
55678;SDS011;41573;51.446;-2.018;2023-04-16T11:23:15;3.50;;;0.98;;
55678;SDS011;41573;51.446;-2.018;2023-04-16T11:25:41;4.47;;;1.25;;
55678;SDS011;41573;51.446;-2.018;2023-04-16T11:28:06;1.80;;;0.60;;
55678;SDS011;41573;51.446;-2.018;2023-04-16T11:30:32;0.95;;;0.70;;
55678;SDS011;41573;51.446;-2.018;2023-04-16T11:33:02;3.92;;;0.90;;
55678;SDS011;41573;51.446;-2.018;2023-04-16T11:35:35;3.75;;;1.38;;
55678;SDS011;41573;51.446;-2.018;2023-04-16T11:38:00;4.13;;;1.00;;
55678;SDS011;41573;51.446;-2.018;2023-04-16T11:40:29;2.05;;;1.10;;
55678;SDS011;41573;51.446;-2.018;2023-04-16T11:42:55;1.65;;;0.85;;
55678;SDS011;41573;51.446;-2.018;2023-04-16T11:45:25;1.15;;;0.47;;
55678;SDS011;41573;51.446;-2.018;2023-04-16T11:47:52;0.75;;;0.73;;
55678;SDS011;41573;51.446;-2.018;2023-04-16T11:50:28;0.80;;;0.73;;
55678;SDS011;41573;51.446;-2.018;2023-04-16T11:52:54;3.50;;;1.00;;
55678;SDS011;41573;51.446;-2.018;2023-04-16T11:55:21;0.60;;;0.55;;
55678;SDS011;41573;51.446;-2.018;2023-04-16T11:57:48;4.93;;;1.02;;
55678;SDS011;41573;51.446;-2.018;2023-04-16T12:00:14;3.17;;;0.90;;
55678;SDS011;41573;51.446;-2.018;2023-04-16T12:05:25;1.88;;;0.80;;
55678;SDS011;41573;51.446;-2.018;2023-04-16T12:07:54;4.28;;;1.73;;
55678;SDS011;41573;51.446;-2.018;2023-04-16T12:10:20;0.73;;;0.60;;
55678;SDS011;41573;51.446;-2.018;2023-04-16T12:12:45;3.42;;;1.00;;
55678;SDS011;41573;51.446;-2.018;2023-04-16T12:15:11;0.68;;;0.60;;
55678;SDS011;41573;51.446;-2.018;2023-04-16T12:17:36;4.00;;;0.70;;
55678;SDS011;41573;51.446;-2.018;2023-04-16T12:20:03;3.90;;;0.70;;
55678;SDS011;41573;51.446;-2.018;2023-04-16T12:22:39;2.55;;;0.70;;
55678;SDS011;41573;51.446;-2.018;2023-04-16T12:27:44;1.15;;;0.80;;
55678;SDS011;41573;51.446;-2.018;2023-04-16T12:30:15;2.22;;;0.90;;
55678;SDS011;41573;51.446;-2.018;2023-04-16T12:32:42;0.57;;;0.50;;
55678;SDS011;41573;51.446;-2.018;2023-04-16T12:35:09;2.08;;;0.93;;
55678;SDS011;41573;51.446;-2.018;2023-04-16T12:37:36;1.02;;;0.68;;
55678;SDS011;41573;51.446;-2.018;2023-04-16T12:40:02;1.75;;;1.15;;
55678;SDS011;41573;51.446;-2.018;2023-04-16T12:42:29;1.13;;;0.70;;
55678;SDS011;41573;51.446;-2.018;2023-04-16T12:44:59;2.70;;;0.75;;
55678;SDS011;41573;51.446;-2.018;2023-04-16T12:47:26;2.47;;;0.80;;
55678;SDS011;41573;51.446;-2.018;2023-04-16T12:49:51;1.60;;;0.73;;
55678;SDS011;41573;51.446;-2.018;2023-04-16T12:52:16;2.03;;;0.75;;
55678;SDS011;41573;51.446;-2.018;2023-04-16T12:54:42;0.88;;;0.60;;
55678;SDS011;41573;51.446;-2.018;2023-04-16T12:57:07;0.60;;;0.50;;
55678;SDS011;41573;51.446;-2.018;2023-04-16T12:59:32;5.63;;;0.93;;
55678;SDS011;41573;51.446;-2.018;2023-04-16T13:01:59;2.03;;;0.88;;
55678;SDS011;41573;51.446;-2.018;2023-04-16T13:04:26;0.77;;;0.60;;
55678;SDS011;41573;51.446;-2.018;2023-04-16T13:06:51;1.23;;;0.52;;
55678;SDS011;41573;51.446;-2.018;2023-04-16T13:09:17;3.53;;;0.82;;
55678;SDS011;41573;51.446;-2.018;2023-04-16T13:11:44;0.63;;;0.50;;
55678;SDS011;41573;51.446;-2.018;2023-04-16T13:14:09;2.15;;;0.50;;
55678;SDS011;41573;51.446;-2.018;2023-04-16T13:16:35;2.63;;;0.65;;
55678;SDS011;41573;51.446;-2.018;2023-04-16T13:19:02;3.40;;;0.47;;
55678;SDS011;41573;51.446;-2.018;2023-04-16T13:21:28;1.10;;;0.43;;
55678;SDS011;41573;51.446;-2.018;2023-04-16T13:23:53;1.40;;;0.43;;
55678;SDS011;41573;51.446;-2.018;2023-04-16T13:26:19;1.20;;;0.57;;
55678;SDS011;41573;51.446;-2.018;2023-04-16T13:28:44;0.57;;;0.43;;
55678;SDS011;41573;51.446;-2.018;2023-04-16T13:31:10;1.20;;;0.40;;
55678;SDS011;41573;51.446;-2.018;2023-04-16T13:33:35;2.33;;;0.75;;
55678;SDS011;41573;51.446;-2.018;2023-04-16T13:36:01;0.40;;;0.38;;
55678;SDS011;41573;51.446;-2.018;2023-04-16T13:38:27;0.85;;;0.50;;
55678;SDS011;41573;51.446;-2.018;2023-04-16T13:40:52;0.73;;;0.32;;
55678;SDS011;41573;51.446;-2.018;2023-04-16T13:43:18;1.92;;;0.65;;
55678;SDS011;41573;51.446;-2.018;2023-04-16T13:45:43;1.23;;;0.68;;
55678;SDS011;41573;51.446;-2.018;2023-04-16T13:48:09;1.92;;;0.60;;
55678;SDS011;41573;51.446;-2.018;2023-04-16T13:50:35;2.80;;;0.70;;
55678;SDS011;41573;51.446;-2.018;2023-04-16T13:53:00;0.28;;;0.28;;
55678;SDS011;41573;51.446;-2.018;2023-04-16T13:55:26;0.38;;;0.38;;
55678;SDS011;41573;51.446;-2.018;2023-04-16T13:57:51;1.45;;;0.75;;
55678;SDS011;41573;51.446;-2.018;2023-04-16T14:00:17;3.95;;;0.50;;
55678;SDS011;41573;51.446;-2.018;2023-04-16T14:02:43;2.83;;;0.75;;
55678;SDS011;41573;51.446;-2.018;2023-04-16T14:05:10;2.33;;;0.43;;
55678;SDS011;41573;51.446;-2.018;2023-04-16T14:07:36;2.85;;;0.77;;
55678;SDS011;41573;51.446;-2.018;2023-04-16T14:10:01;1.33;;;0.63;;
55678;SDS011;41573;51.446;-2.018;2023-04-16T14:12:26;1.83;;;0.70;;
55678;SDS011;41573;51.446;-2.018;2023-04-16T14:14:52;2.67;;;0.60;;
55678;SDS011;41573;51.446;-2.018;2023-04-16T14:17:18;2.42;;;0.73;;
55678;SDS011;41573;51.446;-2.018;2023-04-16T14:19:43;0.95;;;0.45;;
55678;SDS011;41573;51.446;-2.018;2023-04-16T14:22:08;7.53;;;0.80;;
55678;SDS011;41573;51.446;-2.018;2023-04-16T14:24:35;1.77;;;0.60;;
55678;SDS011;41573;51.446;-2.018;2023-04-16T14:27:00;1.55;;;0.70;;
55678;SDS011;41573;51.446;-2.018;2023-04-16T14:29:26;1.75;;;0.90;;
55678;SDS011;41573;51.446;-2.018;2023-04-16T14:31:51;1.65;;;0.68;;
55678;SDS011;41573;51.446;-2.018;2023-04-16T14:34:17;3.45;;;0.80;;
55678;SDS011;41573;51.446;-2.018;2023-04-16T14:36:42;1.30;;;0.40;;
55678;SDS011;41573;51.446;-2.018;2023-04-16T14:39:08;0.40;;;0.40;;
55678;SDS011;41573;51.446;-2.018;2023-04-16T14:41:34;2.50;;;0.77;;